createdAt,value
2022-09-15T00:01:29.187Z,74.52
2022-09-15T00:03:57.678Z,74.56
2022-09-15T00:06:25.881Z,74.46
2022-09-15T00:09:04.730Z,74.84
2022-09-15T00:11:39.588Z,74.96
2022-09-15T00:14:10.526Z,74.84
2022-09-15T00:16:39.375Z,74.77
2022-09-15T00:19:08.021Z,75.17
2022-09-15T00:21:38.827Z,75.39
2022-09-15T00:24:07.763Z,75.63
2022-09-15T00:26:37.326Z,75.74
2022-09-15T00:29:06.527Z,75.70
2022-09-15T00:31:37.201Z,75.42
2022-09-15T00:34:06.374Z,75.02
2022-09-15T00:36:35.681Z,74.99
2022-09-15T00:39:04.120Z,74.92
2022-09-15T00:41:33.259Z,74.73
2022-09-15T00:44:03.787Z,74.46
2022-09-15T00:46:34.505Z,74.53
2022-09-15T00:49:08.496Z,74.51
2022-09-15T00:51:46.913Z,74.80
2022-09-15T00:54:20.089Z,74.93
2022-09-15T00:56:50.951Z,75.24
2022-09-15T00:59:24.370Z,75.08
2022-09-15T01:02:00.081Z,75.23
2022-09-15T01:04:30.141Z,74.66
2022-09-15T01:07:02.373Z,74.32
2022-09-15T01:09:48.919Z,74.21
2022-09-15T01:12:17.953Z,74.36
2022-09-15T01:14:46.116Z,73.87
2022-09-15T01:17:22.470Z,73.89
2022-09-15T01:20:26.133Z,73.89
2022-09-15T01:23:13.192Z,73.96
2022-09-15T01:26:05.097Z,74.07
2022-09-15T01:28:50.168Z,74.32
2022-09-15T01:31:25.056Z,74.18
2022-09-15T01:33:59.121Z,74.34
2022-09-15T01:36:38.758Z,74.21
2022-09-15T01:39:16.927Z,74.36
2022-09-15T01:41:49.617Z,74.33
2022-09-15T01:44:23.343Z,74.53
2022-09-15T01:46:58.421Z,74.41
2022-09-15T01:49:30.379Z,74.63
2022-09-15T01:51:59.654Z,74.57
2022-09-15T01:54:31.297Z,74.68
2022-09-15T01:56:59.934Z,74.67
2022-09-15T01:59:28.141Z,74.71
2022-09-15T02:02:02.989Z,74.35
2022-09-15T02:04:38.326Z,74.41
2022-09-15T02:07:12.461Z,74.42
2022-09-15T02:09:48.588Z,74.34
2022-09-15T02:12:21.292Z,74.53
2022-09-15T02:14:57.115Z,74.62
2022-09-15T02:17:32.792Z,74.89
2022-09-15T02:20:10.089Z,74.95
2022-09-15T02:22:41.044Z,75.04
2022-09-15T02:25:14.135Z,74.98
2022-09-15T02:27:47.473Z,75.05
2022-09-15T02:30:18.135Z,75.21
2022-09-15T02:32:54.264Z,75.12
2022-09-15T02:35:23.848Z,75.21
2022-09-15T02:37:53.359Z,75.41
2022-09-15T02:40:22.248Z,75.64
2022-09-15T02:42:55.982Z,75.66
2022-09-15T02:45:24.789Z,75.76
2022-09-15T02:47:54.448Z,75.59
2022-09-15T02:50:22.680Z,75.66
2022-09-15T02:52:50.904Z,75.46
2022-09-15T02:55:19.408Z,75.41
2022-09-15T02:57:47.600Z,75.57
2022-09-15T03:00:17.636Z,75.45
2022-09-15T03:02:48.353Z,75.62
2022-09-15T03:05:19.614Z,75.84
2022-09-15T03:07:47.835Z,75.99
2022-09-15T03:10:16.451Z,76.11
2022-09-15T03:12:46.744Z,75.98
2022-09-15T03:15:17.000Z,75.74
2022-09-15T03:17:47.031Z,76.00
2022-09-15T03:20:20.166Z,76.17
2022-09-15T03:22:48.509Z,76.72
2022-09-15T03:25:17.289Z,76.84
2022-09-15T03:27:45.828Z,76.93
2022-09-15T03:30:14.820Z,77.28
2022-09-15T03:32:43.432Z,77.29
2022-09-15T03:35:11.809Z,77.35
2022-09-15T03:37:41.416Z,77.36
2022-09-15T03:40:11.380Z,77.19
2022-09-15T03:42:39.763Z,76.96
2022-09-15T03:45:08.951Z,76.96
2022-09-15T03:47:37.259Z,76.79
2022-09-15T03:50:06.910Z,76.54
2022-09-15T03:52:35.127Z,76.52
2022-09-15T03:55:04.918Z,76.39
2022-09-15T03:57:33.259Z,76.34
2022-09-15T04:00:02.556Z,76.20
2022-09-15T04:02:32.640Z,76.35
2022-09-15T04:05:00.989Z,76.40
2022-09-15T04:07:29.368Z,76.21
2022-09-15T04:09:57.654Z,75.76
2022-09-15T04:12:27.325Z,76.12
2022-09-15T04:14:55.634Z,76.21
2022-09-15T04:17:23.982Z,76.46
2022-09-15T04:19:52.171Z,76.59
2022-09-15T04:22:20.597Z,76.29
2022-09-15T04:24:49.241Z,76.49
2022-09-15T04:27:17.901Z,76.50
2022-09-15T04:29:47.560Z,76.61
2022-09-15T04:32:15.844Z,76.33
2022-09-15T04:34:46.141Z,76.28
2022-09-15T04:37:14.497Z,75.78
2022-09-15T04:39:42.661Z,76.09
2022-09-15T04:42:11.008Z,76.13
2022-09-15T04:44:39.205Z,76.28
2022-09-15T04:47:08.902Z,76.63
2022-09-15T04:49:37.083Z,76.68
2022-09-15T04:52:09.469Z,76.49
2022-09-15T04:54:38.084Z,76.25
2022-09-15T04:57:06.369Z,76.03
2022-09-15T04:59:34.787Z,76.16
2022-09-15T05:02:03.019Z,76.19
2022-09-15T05:04:32.836Z,76.10
2022-09-15T05:07:01.048Z,75.94
2022-09-15T05:09:31.039Z,76.20
2022-09-15T05:11:59.280Z,76.47
2022-09-15T05:14:27.578Z,76.29
2022-09-15T05:16:55.756Z,76.33
2022-09-15T05:19:24.322Z,76.56
2022-09-15T05:21:53.952Z,76.60
2022-09-15T05:24:22.263Z,76.62
2022-09-15T05:26:50.467Z,76.55
2022-09-15T05:29:18.716Z,77.10
2022-09-15T05:31:47.003Z,77.08
2022-09-15T05:34:15.408Z,77.31
2022-09-15T05:36:43.658Z,77.36
2022-09-15T05:39:13.371Z,77.18
2022-09-15T05:41:41.563Z,77.40
2022-09-15T05:44:11.383Z,77.38
2022-09-15T05:46:40.856Z,77.60
2022-09-15T05:49:09.304Z,77.48
2022-09-15T05:51:37.847Z,77.24
2022-09-15T05:54:06.294Z,77.27
2022-09-15T05:56:36.429Z,77.44
2022-09-15T05:59:04.662Z,77.22
2022-09-15T06:01:33.347Z,77.29
2022-09-15T06:04:01.625Z,77.28
2022-09-15T06:06:33.335Z,77.72
2022-09-15T06:09:02.168Z,77.57
2022-09-15T06:11:33.855Z,77.46
2022-09-15T06:14:06.155Z,78.02
2022-09-15T06:16:35.870Z,77.56
2022-09-15T06:19:04.864Z,77.97
2022-09-15T06:21:34.157Z,78.58
2022-09-15T06:24:07.420Z,79.30
2022-09-15T06:26:36.157Z,79.22
2022-09-15T06:29:06.649Z,79.36
2022-09-15T06:31:36.250Z,79.61
2022-09-15T06:34:10.074Z,79.33
2022-09-15T06:36:43.315Z,78.25
2022-09-15T06:39:11.861Z,77.17
2022-09-15T06:42:01.238Z,76.25
2022-09-15T06:44:31.388Z,75.38
2022-09-15T06:46:59.685Z,73.77
2022-09-15T06:49:28.752Z,72.32
2022-09-15T06:51:57.077Z,71.34
2022-09-15T06:54:25.456Z,71.16
2022-09-15T06:56:53.731Z,70.77
2022-09-15T06:59:23.988Z,70.75
2022-09-15T07:01:55.316Z,70.98
2022-09-15T07:04:23.884Z,70.39
2022-09-15T07:06:52.138Z,70.24
2022-09-15T07:09:23.094Z,70.18
2022-09-15T07:11:51.567Z,69.69
2022-09-15T07:14:19.773Z,69.83
2022-09-15T07:16:48.138Z,69.34
2022-09-15T07:19:24.349Z,68.66
2022-09-15T07:21:54.021Z,68.31
2022-09-15T07:24:24.805Z,68.54
2022-09-15T07:26:53.232Z,68.03
2022-09-15T07:29:21.443Z,68.05
2022-09-15T07:31:50.731Z,67.72
2022-09-15T07:34:20.437Z,67.32
2022-09-15T07:36:49.041Z,67.45
2022-09-15T07:39:17.329Z,67.11
2022-09-15T07:41:45.610Z,66.83
2022-09-15T07:44:14.272Z,66.97
2022-09-15T07:46:42.566Z,66.73
2022-09-15T07:49:11.636Z,65.96
2022-09-15T07:51:41.271Z,65.73
2022-09-15T07:54:09.438Z,63.34
2022-09-15T07:56:37.680Z,62.70
2022-09-15T07:59:05.972Z,61.59
2022-09-15T08:01:34.853Z,62.51
2022-09-15T08:04:03.382Z,62.08
2022-09-15T08:06:35.193Z,61.72
2022-09-15T08:09:05.253Z,61.19
2022-09-15T08:11:34.112Z,60.28
2022-09-15T08:14:03.677Z,59.87
2022-09-15T08:16:32.590Z,60.52
2022-09-15T08:19:01.610Z,59.35
2022-09-15T08:21:30.608Z,58.95
2022-09-15T08:24:01.316Z,58.10
2022-09-15T08:26:31.745Z,56.81
2022-09-15T08:29:00.729Z,55.66
2022-09-15T08:31:29.175Z,55.52
2022-09-15T08:33:58.021Z,53.94
2022-09-15T08:36:28.056Z,52.25
2022-09-15T08:38:57.958Z,51.98
2022-09-15T08:41:32.579Z,52.35
2022-09-15T08:44:12.031Z,53.06
2022-09-15T08:46:47.944Z,50.58
2022-09-15T08:49:47.529Z,50.49
2022-09-15T08:52:18.062Z,51.21
2022-09-15T08:54:46.392Z,49.30
2022-09-15T08:57:21.152Z,48.71
2022-09-15T08:59:49.360Z,49.87
2022-09-15T09:02:39.235Z,49.94
2022-09-15T09:05:17.655Z,50.11
2022-09-15T09:08:06.391Z,51.41
2022-09-15T09:10:46.769Z,50.89
2022-09-15T09:13:29.987Z,50.05
2022-09-15T09:16:27.568Z,50.50
2022-09-15T09:19:16.332Z,50.10
2022-09-15T09:21:49.541Z,50.37
2022-09-15T09:24:21.136Z,50.35
2022-09-15T09:26:53.366Z,49.93
2022-09-15T09:29:30.630Z,50.19
2022-09-15T09:32:00.041Z,50.28
2022-09-15T09:34:33.057Z,50.41
2022-09-15T09:37:10.080Z,50.28
2022-09-15T09:39:38.391Z,50.19
2022-09-15T09:42:09.143Z,49.27
2022-09-15T09:44:40.292Z,49.33
2022-09-15T09:47:08.941Z,50.23
2022-09-15T09:49:42.137Z,49.95
2022-09-15T09:52:10.652Z,49.21
2022-09-15T09:54:39.392Z,48.81
2022-09-15T09:57:29.821Z,48.99
2022-09-15T09:59:59.678Z,49.47
2022-09-15T10:02:28.870Z,49.09
2022-09-15T10:05:19.365Z,48.80
2022-09-15T10:07:48.872Z,49.38
2022-09-15T10:10:23.218Z,49.10
2022-09-15T10:12:55.970Z,49.02
2022-09-15T10:15:27.965Z,49.13
2022-09-15T10:17:57.885Z,48.86
2022-09-15T10:20:32.676Z,48.48
2022-09-15T10:23:07.038Z,47.68
2022-09-15T10:25:58.064Z,47.06
2022-09-15T10:28:28.904Z,45.75
2022-09-15T10:31:03.489Z,45.44
2022-09-15T10:33:35.120Z,44.91
2022-09-15T10:36:06.985Z,43.43
2022-09-15T10:38:41.733Z,42.92
2022-09-15T10:41:22.006Z,43.01
2022-09-15T10:44:04.521Z,42.07
2022-09-15T10:46:47.287Z,42.72
2022-09-15T10:49:34.433Z,42.47
2022-09-15T10:52:11.205Z,41.75
2022-09-15T10:54:53.606Z,41.93
2022-09-15T10:57:36.312Z,40.92
2022-09-15T11:00:07.410Z,40.23
2022-09-15T11:02:56.447Z,39.69
2022-09-15T11:05:35.412Z,40.05
2022-09-15T11:08:25.117Z,39.14
2022-09-15T11:11:00.544Z,39.71
2022-09-15T11:13:34.976Z,39.02
2022-09-15T11:16:13.297Z,39.59
2022-09-15T11:19:00.094Z,39.89
2022-09-15T11:21:35.393Z,39.47
2022-09-15T11:24:30.195Z,39.75
2022-09-15T11:27:02.523Z,39.98
2022-09-15T11:29:37.086Z,38.62
2022-09-15T11:32:12.975Z,38.67
2022-09-15T11:34:50.093Z,39.32
2022-09-15T11:37:22.487Z,37.67
2022-09-15T11:39:59.668Z,37.93
2022-09-15T11:42:34.712Z,37.38
2022-09-15T11:45:04.643Z,37.82
2022-09-15T11:47:39.599Z,37.10
2022-09-15T11:50:18.604Z,37.26
2022-09-15T11:52:54.117Z,37.22
2022-09-15T11:55:28.438Z,37.04
2022-09-15T11:58:07.206Z,36.77
2022-09-15T12:00:38.607Z,35.62
2022-09-15T12:03:19.451Z,36.82
2022-09-15T12:05:55.843Z,36.26
2022-09-15T12:08:31.682Z,36.57
2022-09-15T12:11:02.340Z,37.36
2022-09-15T12:13:32.354Z,36.38
2022-09-15T12:16:01.803Z,36.86
2022-09-15T12:18:40.137Z,36.62
2022-09-15T12:21:18.683Z,36.24
2022-09-15T12:23:53.684Z,36.11
2022-09-15T12:26:24.842Z,36.14
2022-09-15T12:28:56.273Z,35.82
2022-09-15T12:31:33.976Z,35.50
2022-09-15T12:34:06.698Z,35.52
2022-09-15T12:36:45.778Z,36.12
2022-09-15T12:39:27.517Z,34.71
2022-09-15T12:41:58.615Z,33.65
2022-09-15T12:44:33.929Z,34.83
2022-09-15T12:47:03.005Z,35.64
2022-09-15T12:49:35.124Z,34.71
2022-09-15T12:52:07.997Z,35.56
2022-09-15T12:54:40.284Z,33.99
2022-09-15T12:57:20.740Z,34.64
2022-09-15T12:59:49.074Z,35.75
2022-09-15T13:02:46.496Z,33.95
2022-09-15T13:05:52.508Z,34.98
2022-09-15T13:08:51.255Z,36.60
2022-09-15T13:11:27.158Z,35.76
2022-09-15T13:14:10.774Z,35.64
2022-09-15T13:16:49.537Z,35.59
2022-09-15T13:19:23.497Z,35.83
2022-09-15T13:21:58.643Z,34.61
2022-09-15T13:24:38.200Z,34.65
2022-09-15T13:27:09.015Z,35.07
2022-09-15T13:29:48.136Z,35.15
2022-09-15T13:32:34.823Z,34.10
2022-09-15T13:35:43.921Z,35.07
2022-09-15T13:38:52.690Z,36.38
2022-09-15T13:41:48.593Z,34.13
2022-09-15T13:44:46.161Z,34.09
2022-09-15T13:47:28.085Z,33.75
2022-09-15T13:50:12.398Z,34.68
2022-09-15T13:52:58.037Z,34.74
2022-09-15T13:55:28.268Z,34.69
2022-09-15T14:00:58.175Z,34.05
2022-09-15T14:03:33.960Z,35.34
2022-09-15T14:06:02.365Z,36.76
2022-09-15T14:08:34.275Z,35.77
2022-09-15T14:11:08.401Z,35.77
2022-09-15T14:13:42.113Z,35.69
2022-09-15T14:16:24.843Z,34.19
2022-09-15T14:18:55.137Z,35.18
2022-09-15T14:21:27.245Z,35.87
2022-09-15T14:23:57.100Z,34.48
2022-09-15T14:26:28.156Z,33.46
2022-09-15T14:29:00.315Z,34.84
2022-09-15T14:31:31.607Z,34.75
2022-09-15T14:34:00.714Z,35.66
2022-09-15T14:36:31.480Z,35.30
2022-09-15T14:39:27.486Z,35.38
2022-09-15T14:41:56.120Z,34.79
2022-09-15T14:47:29.030Z,35.07
2022-09-15T14:50:08.687Z,34.57
2022-09-15T14:52:39.958Z,35.04
2022-09-15T14:55:15.627Z,36.70
2022-09-15T14:57:51.959Z,37.63
2022-09-15T15:00:26.470Z,38.55
2022-09-15T15:03:05.684Z,39.05
2022-09-15T15:05:36.982Z,39.14
2022-09-15T15:08:07.988Z,38.41
2022-09-15T15:10:37.914Z,36.94
2022-09-15T15:13:11.343Z,37.00
2022-09-15T15:15:41.511Z,37.39
2022-09-15T15:18:38.857Z,37.41
2022-09-15T15:21:07.785Z,36.79
2022-09-15T15:23:46.888Z,36.09
2022-09-15T15:26:35.909Z,36.60
2022-09-15T15:29:08.207Z,36.81
2022-09-15T15:31:41.112Z,36.42
2022-09-15T15:34:25.993Z,37.25
2022-09-15T15:37:03.971Z,37.83
2022-09-15T15:39:32.318Z,35.53
2022-09-15T15:42:03.712Z,36.36
2022-09-15T15:44:32.887Z,37.84
2022-09-15T15:47:04.231Z,37.10
2022-09-15T15:49:33.657Z,37.57
2022-09-15T15:52:02.886Z,36.87
2022-09-15T15:54:34.603Z,37.02
2022-09-15T15:57:22.865Z,36.47
2022-09-15T15:59:55.468Z,35.96
2022-09-15T16:02:26.512Z,36.82
2022-09-15T16:04:55.341Z,35.85
2022-09-15T16:07:31.130Z,35.85
2022-09-15T16:10:02.275Z,35.01
2022-09-15T16:12:33.219Z,34.81
2022-09-15T16:15:07.560Z,35.29
2022-09-15T16:17:37.166Z,35.57
2022-09-15T16:20:07.430Z,35.47
2022-09-15T16:22:36.179Z,35.57
2022-09-15T16:25:16.689Z,36.53
2022-09-15T16:27:45.020Z,36.99
2022-09-15T16:30:13.422Z,38.02
2022-09-15T16:32:43.076Z,38.58
2022-09-15T16:35:31.448Z,37.98
2022-09-15T16:37:59.898Z,38.57
2022-09-15T16:40:28.530Z,39.77
2022-09-15T16:42:56.956Z,40.26
2022-09-15T16:45:30.660Z,40.68
2022-09-15T16:48:00.359Z,40.51
2022-09-15T16:50:30.370Z,41.02
2022-09-15T16:52:59.041Z,41.58
2022-09-15T16:55:34.389Z,41.32
2022-09-15T16:58:03.209Z,41.48
2022-09-15T17:00:33.177Z,41.64
2022-09-15T17:03:03.209Z,41.50
2022-09-15T17:05:36.720Z,41.12
2022-09-15T17:08:06.021Z,41.14
2022-09-15T17:10:34.707Z,42.51
2022-09-15T17:13:03.615Z,43.40
2022-09-15T17:15:35.523Z,44.28
2022-09-15T17:18:07.613Z,44.06
2022-09-15T17:20:39.118Z,44.73
2022-09-15T17:23:19.022Z,44.72
2022-09-15T17:25:52.698Z,45.65
2022-09-15T17:28:22.819Z,46.46
2022-09-15T17:30:52.552Z,47.43
2022-09-15T17:33:22.441Z,48.25
2022-09-15T17:35:51.203Z,48.32
2022-09-15T17:38:21.730Z,49.26
2022-09-15T17:40:51.083Z,49.17
2022-09-15T17:43:22.735Z,50.15
2022-09-15T17:45:51.963Z,51.99
2022-09-15T17:48:22.512Z,52.95
2022-09-15T17:50:51.231Z,52.88
2022-09-15T17:53:22.748Z,51.88
2022-09-15T17:55:52.025Z,51.90
2022-09-15T17:58:20.213Z,53.56
2022-09-15T18:00:50.239Z,53.78
2022-09-15T18:03:25.020Z,53.74
2022-09-15T18:05:53.516Z,53.04
2022-09-15T18:08:21.868Z,52.59
2022-09-15T18:10:50.963Z,52.42
2022-09-15T18:13:20.968Z,53.29
2022-09-15T18:15:50.051Z,53.18
2022-09-15T18:18:20.504Z,52.64
2022-09-15T18:20:53.095Z,53.48
2022-09-15T18:23:23.171Z,53.96
2022-09-15T18:25:52.175Z,53.17
2022-09-15T18:28:21.500Z,52.94
2022-09-15T18:30:51.241Z,52.92
2022-09-15T18:33:20.929Z,52.69
2022-09-15T18:35:53.140Z,52.82
2022-09-15T18:38:21.851Z,53.21
2022-09-15T18:40:53.486Z,53.60
2022-09-15T18:43:22.444Z,54.60
2022-09-15T18:45:50.713Z,53.76
2022-09-15T18:48:19.558Z,53.62
2022-09-15T18:50:47.780Z,54.04
2022-09-15T18:53:17.644Z,54.31
2022-09-15T18:55:45.889Z,55.37
2022-09-15T18:58:14.262Z,55.52
2022-09-15T19:00:42.764Z,55.61
2022-09-15T19:03:11.058Z,55.78
2022-09-15T19:05:39.559Z,55.64
2022-09-15T19:08:09.471Z,55.95
2022-09-15T19:10:41.611Z,54.68
2022-09-15T19:13:11.481Z,54.26
2022-09-15T19:15:40.418Z,53.63
2022-09-15T19:18:09.031Z,53.41
2022-09-15T19:20:37.314Z,53.40
2022-09-15T19:23:05.513Z,53.36
2022-09-15T19:25:33.768Z,53.65
2022-09-15T19:28:03.838Z,53.47
2022-09-15T19:30:32.161Z,53.93
2022-09-15T19:33:00.452Z,54.20
2022-09-15T19:35:28.736Z,54.12
2022-09-15T19:37:57.001Z,54.47
2022-09-15T19:40:25.383Z,54.60
2022-09-15T19:42:53.633Z,55.72
2022-09-15T19:45:23.349Z,56.05
2022-09-15T19:47:51.578Z,56.21
2022-09-15T19:50:20.083Z,56.80
2022-09-15T19:52:48.397Z,57.42
2022-09-15T19:55:18.260Z,57.24
2022-09-15T19:57:46.619Z,57.86
2022-09-15T20:00:16.047Z,58.46
2022-09-15T20:02:48.864Z,58.74
2022-09-15T20:05:17.450Z,59.22
2022-09-15T20:07:48.149Z,59.96
2022-09-15T20:10:18.152Z,60.89
2022-09-15T20:12:47.556Z,61.32
2022-09-15T20:15:15.792Z,61.56
2022-09-15T20:17:45.458Z,61.97
2022-09-15T20:20:13.654Z,62.61
2022-09-15T20:22:41.934Z,63.27
2022-09-15T20:25:10.250Z,63.46
2022-09-15T20:27:38.571Z,63.73
2022-09-15T20:30:09.108Z,63.99
2022-09-15T20:32:37.583Z,63.95
2022-09-15T20:35:07.721Z,64.04
2022-09-15T20:37:37.677Z,64.17
2022-09-15T20:40:07.220Z,64.36
2022-09-15T20:42:35.559Z,65.05
2022-09-15T20:45:04.430Z,65.25
2022-09-15T20:47:32.718Z,65.37
2022-09-15T20:50:01.077Z,65.22
2022-09-15T20:52:37.362Z,65.06
2022-09-15T20:55:07.599Z,65.18
2022-09-15T20:57:35.816Z,65.32
2022-09-15T21:00:06.254Z,65.34
2022-09-15T21:02:34.599Z,65.66
2022-09-15T21:05:02.885Z,65.54
2022-09-15T21:07:32.782Z,65.63
2022-09-15T21:10:01.055Z,65.71
2022-09-15T21:12:29.464Z,65.89
2022-09-15T21:14:57.959Z,65.96
2022-09-15T21:17:26.279Z,66.19
2022-09-15T21:19:54.537Z,66.48
2022-09-15T21:22:22.827Z,66.11
2022-09-15T21:24:52.493Z,66.03
2022-09-15T21:27:30.739Z,66.03
2022-09-15T21:29:59.244Z,65.87
2022-09-15T21:32:27.553Z,66.14
2022-09-15T21:34:56.091Z,66.48
2022-09-15T21:37:27.956Z,66.24
2022-09-15T21:39:57.867Z,66.52
2022-09-15T21:42:26.685Z,66.70
2022-09-15T21:44:55.811Z,66.69
2022-09-15T21:47:24.112Z,67.15
2022-09-15T21:49:52.457Z,67.11
2022-09-15T21:52:20.734Z,67.27
2022-09-15T21:54:49.228Z,67.30
2022-09-15T21:57:18.975Z,67.25
2022-09-15T21:59:47.221Z,67.55
2022-09-15T22:02:17.446Z,67.82
2022-09-15T22:04:45.752Z,68.42
2022-09-15T22:07:15.321Z,68.30
2022-09-15T22:09:43.539Z,68.41
2022-09-15T22:12:11.823Z,68.85
2022-09-15T22:14:41.523Z,69.04
2022-09-15T22:17:09.754Z,69.11
2022-09-15T22:19:37.997Z,69.19
2022-09-15T22:22:06.267Z,69.25
2022-09-15T22:24:34.571Z,69.53
2022-09-15T22:27:02.866Z,69.49
2022-09-15T22:29:31.103Z,69.62
2022-09-15T22:32:00.755Z,69.48
2022-09-15T22:34:29.286Z,69.29
2022-09-15T22:36:57.995Z,69.35
2022-09-15T22:39:43.908Z,69.18
2022-09-15T22:42:14.714Z,69.27
2022-09-15T22:44:42.954Z,69.26
2022-09-15T22:47:12.772Z,69.26
2022-09-15T22:49:41.001Z,69.32
2022-09-15T22:52:09.547Z,69.15
2022-09-15T22:54:38.782Z,69.48
2022-09-15T22:57:07.331Z,69.41
2022-09-15T22:59:35.522Z,69.39
2022-09-15T23:02:03.954Z,69.28
2022-09-15T23:04:33.684Z,69.26
2022-09-15T23:07:01.982Z,69.47
2022-09-15T23:09:30.302Z,69.55
2022-09-15T23:11:58.629Z,69.85
2022-09-15T23:14:27.998Z,70.36
2022-09-15T23:16:57.356Z,70.48
2022-09-15T23:19:25.603Z,70.75
2022-09-15T23:21:55.345Z,70.88
2022-09-15T23:24:24.130Z,70.87
2022-09-15T23:26:52.375Z,71.01
2022-09-15T23:29:20.610Z,70.85
2022-09-15T23:31:48.980Z,70.83
2022-09-15T23:34:17.564Z,70.90
2022-09-15T23:36:45.986Z,70.89
2022-09-15T23:39:15.655Z,70.90
2022-09-15T23:41:43.973Z,70.84
2022-09-15T23:44:12.481Z,70.49
2022-09-15T23:46:41.158Z,70.39
2022-09-15T23:49:09.557Z,70.50
2022-09-15T23:51:37.801Z,70.53
2022-09-15T23:54:06.515Z,70.47
2022-09-15T23:56:36.195Z,70.49
2022-09-15T23:59:04.503Z,70.55
